createdAt,value
2018-02-21T00:00:25.858Z,38.30
2018-02-21T00:02:53.347Z,34.50
2018-02-21T00:05:21.212Z,36.50
2018-02-21T00:07:49.062Z,39.00
2018-02-21T00:10:16.574Z,35.50
2018-02-21T00:12:44.073Z,35.20
2018-02-21T00:15:11.564Z,36.57
2018-02-21T00:17:39.415Z,35.00
2018-02-21T00:20:06.872Z,34.13
2018-02-21T00:22:34.403Z,35.67
2018-02-21T00:25:02.216Z,34.67
2018-02-21T00:27:29.665Z,36.27
2018-02-21T00:29:57.124Z,35.07
2018-02-21T00:32:25.813Z,33.33
2018-02-21T00:34:53.381Z,34.60
2018-02-21T00:37:20.929Z,36.17
2018-02-21T00:39:48.436Z,36.80
2018-02-21T00:42:16.375Z,35.77
2018-02-21T00:44:43.943Z,38.67
2018-02-21T00:47:11.505Z,35.13
2018-02-21T00:49:39.080Z,37.70
2018-02-21T00:52:06.633Z,39.47
2018-02-21T00:54:34.085Z,32.10
2018-02-21T00:57:01.542Z,37.43
2018-02-21T00:59:29.118Z,34.53
2018-02-21T01:01:56.570Z,35.77
2018-02-21T01:04:24.029Z,35.97
2018-02-21T01:06:51.505Z,36.30
2018-02-21T01:09:18.960Z,35.97
2018-02-21T01:11:46.441Z,33.70
2018-02-21T01:14:14.913Z,37.00
2018-02-21T01:16:42.358Z,37.50
2018-02-21T01:19:09.826Z,39.53
2018-02-21T01:21:37.272Z,35.90
2018-02-21T01:24:04.771Z,34.07
2018-02-21T01:26:32.240Z,37.77
2018-02-21T01:28:59.698Z,35.13
2018-02-21T01:31:27.181Z,33.60
2018-02-21T01:33:55.118Z,33.47
2018-02-21T01:36:22.669Z,33.77
2018-02-21T01:38:50.153Z,33.77
2018-02-21T01:41:17.606Z,34.43
2018-02-21T01:43:45.172Z,32.47
2018-02-21T01:46:14.476Z,33.77
2018-02-21T01:48:41.961Z,33.83
2018-02-21T01:51:09.840Z,31.20
2018-02-21T01:53:37.693Z,31.00
2018-02-21T01:56:05.175Z,31.97
2018-02-21T01:58:33.108Z,32.30
2018-02-21T02:01:00.584Z,33.30
2018-02-21T02:03:28.037Z,34.30
2018-02-21T02:05:55.484Z,33.53
2018-02-21T02:08:22.946Z,32.90
2018-02-21T02:10:50.413Z,33.30
2018-02-21T02:13:17.878Z,33.90
2018-02-21T02:15:45.334Z,33.73
2018-02-21T02:18:12.793Z,32.33
2018-02-21T02:20:40.252Z,31.07
2018-02-21T02:23:07.738Z,30.80
2018-02-21T02:25:35.205Z,35.00
2018-02-21T02:28:02.759Z,32.10
2018-02-21T02:30:31.149Z,30.80
2018-02-21T02:32:58.617Z,32.67
2018-02-21T02:35:26.065Z,32.80
2018-02-21T02:37:53.627Z,32.77
2018-02-21T02:40:21.100Z,31.97
2018-02-21T02:42:48.594Z,32.83
2018-02-21T02:45:16.513Z,35.00
2018-02-21T02:47:43.965Z,30.23
2018-02-21T02:50:11.460Z,33.50
2018-02-21T02:52:38.917Z,33.83
2018-02-21T02:55:06.397Z,36.67
2018-02-21T02:57:34.236Z,32.97
2018-02-21T03:00:01.697Z,33.43
2018-02-21T03:02:29.153Z,33.60
2018-02-21T03:04:56.826Z,34.97
2018-02-21T03:07:24.277Z,31.70
2018-02-21T03:09:51.741Z,31.63
2018-02-21T03:12:19.208Z,36.23
2018-02-21T03:14:46.666Z,33.97
2018-02-21T03:17:14.121Z,33.40
2018-02-21T03:19:42.936Z,29.90
2018-02-21T03:22:10.396Z,33.63
2018-02-21T03:24:37.850Z,34.70
2018-02-21T03:27:05.312Z,34.17
2018-02-21T03:29:32.883Z,32.83
2018-02-21T03:32:00.363Z,32.70
2018-02-21T03:34:27.813Z,34.10
2018-02-21T03:36:55.274Z,35.80
2018-02-21T03:39:24.059Z,33.50
2018-02-21T03:41:51.509Z,32.20
2018-02-21T03:44:18.981Z,34.77
2018-02-21T03:46:46.432Z,35.63
2018-02-21T03:49:13.954Z,35.13
2018-02-21T03:51:41.425Z,35.83
2018-02-21T03:54:08.897Z,32.67
2018-02-21T03:56:36.363Z,36.07
2018-02-21T03:59:03.819Z,38.27
2018-02-21T04:01:31.277Z,34.90
2018-02-21T04:03:58.741Z,36.70
2018-02-21T04:06:26.433Z,35.37
2018-02-21T04:08:54.005Z,36.13
2018-02-21T04:11:21.486Z,33.97
2018-02-21T04:13:48.937Z,37.80
2018-02-21T04:16:16.496Z,34.37
2018-02-21T04:18:44.066Z,35.67
2018-02-21T04:21:11.520Z,37.20
2018-02-21T04:23:39.093Z,35.73
2018-02-21T04:26:06.662Z,39.53
2018-02-21T04:28:34.124Z,39.13
2018-02-21T04:31:01.600Z,38.30
2018-02-21T04:33:29.052Z,37.10
2018-02-21T04:35:56.506Z,39.23
2018-02-21T04:38:23.968Z,35.60
2018-02-21T04:40:51.410Z,40.67
2018-02-21T04:43:18.889Z,38.40
2018-02-21T04:45:46.343Z,38.07
2018-02-21T04:48:15.522Z,37.80
2018-02-21T04:50:42.971Z,37.50
2018-02-21T04:53:10.451Z,37.17
2018-02-21T04:55:40.361Z,39.17
2018-02-21T04:58:22.716Z,40.90
2018-02-21T05:00:50.557Z,34.93
2018-02-21T05:03:18.020Z,39.17
2018-02-21T05:05:45.492Z,38.07
2018-02-21T05:08:12.952Z,37.87
2018-02-21T05:10:40.450Z,34.87
2018-02-21T05:13:08.305Z,37.23
2018-02-21T05:15:36.169Z,34.50
2018-02-21T05:18:04.035Z,37.30
2018-02-21T05:20:31.718Z,40.47
2018-02-21T05:22:59.628Z,37.27
2018-02-21T05:25:27.072Z,35.07
2018-02-21T05:27:54.545Z,37.20
2018-02-21T05:30:22.054Z,37.53
2018-02-21T05:32:49.518Z,37.93
2018-02-21T05:35:17.014Z,36.00
2018-02-21T05:37:44.452Z,36.03
2018-02-21T05:40:12.308Z,37.10
2018-02-21T05:42:39.755Z,33.67
2018-02-21T05:45:07.281Z,36.90
2018-02-21T05:47:34.731Z,37.90
2018-02-21T05:50:02.198Z,35.67
2018-02-21T05:52:29.718Z,34.70
2018-02-21T05:54:57.184Z,35.57
2018-02-21T05:57:24.693Z,36.47
2018-02-21T05:59:52.984Z,36.87
2018-02-21T06:02:20.579Z,35.77
2018-02-21T06:04:48.145Z,33.60
2018-02-21T06:07:15.697Z,34.60
2018-02-21T06:09:43.265Z,37.47
2018-02-21T06:12:10.712Z,33.70
2018-02-21T06:14:38.173Z,35.17
2018-02-21T06:17:05.639Z,35.30
2018-02-21T06:19:33.217Z,34.80
2018-02-21T06:22:00.664Z,35.73
2018-02-21T06:24:28.444Z,37.50
2018-02-21T06:26:55.931Z,33.20
2018-02-21T06:29:23.472Z,35.03
2018-02-21T06:31:50.937Z,34.60
2018-02-21T06:34:18.416Z,37.47
2018-02-21T06:36:45.889Z,35.57
2018-02-21T06:39:13.732Z,36.73
2018-02-21T06:41:41.195Z,36.40
2018-02-21T06:44:08.678Z,35.17
2018-02-21T06:46:36.362Z,34.87
2018-02-21T06:49:03.892Z,35.87
2018-02-21T06:51:31.288Z,35.77
2018-02-21T06:53:58.736Z,36.90
2018-02-21T06:56:26.591Z,35.77
2018-02-21T06:58:54.046Z,34.40
2018-02-21T07:01:21.508Z,36.90
2018-02-21T07:03:49.061Z,32.27
2018-02-21T07:06:16.526Z,33.97
2018-02-21T07:08:44.101Z,35.33
2018-02-21T07:11:11.580Z,33.60
2018-02-21T07:13:39.693Z,35.17
2018-02-21T07:16:07.160Z,32.60
2018-02-21T07:18:34.645Z,34.87
2018-02-21T07:21:02.112Z,34.20
2018-02-21T07:23:29.611Z,28.27
2018-02-21T07:25:57.137Z,32.00
2018-02-21T07:28:24.601Z,31.30
2018-02-21T07:30:52.154Z,32.07
2018-02-21T07:33:19.720Z,31.70
2018-02-21T07:35:47.181Z,33.77
2018-02-21T07:38:14.772Z,32.17
2018-02-21T07:40:42.223Z,30.27
2018-02-21T07:43:09.679Z,30.33
2018-02-21T07:45:37.141Z,30.83
2018-02-21T07:48:04.609Z,32.77
2018-02-21T07:50:32.072Z,30.73
2018-02-21T07:52:59.547Z,30.00
2018-02-21T07:55:27.086Z,27.70
2018-02-21T07:57:54.544Z,29.90
2018-02-21T08:00:22.004Z,30.70
2018-02-21T08:02:49.477Z,28.67
2018-02-21T08:05:17.052Z,30.93
2018-02-21T08:07:44.612Z,28.60
2018-02-21T08:10:12.073Z,29.33
2018-02-21T08:12:39.512Z,26.67
2018-02-21T08:15:06.981Z,29.43
2018-02-21T08:17:34.466Z,26.53
2018-02-21T08:20:01.913Z,29.40
2018-02-21T08:22:29.401Z,28.90
2018-02-21T08:24:59.130Z,26.83
2018-02-21T08:27:26.905Z,29.60
2018-02-21T08:29:54.407Z,26.53
2018-02-21T08:32:21.869Z,30.30
2018-02-21T08:34:49.321Z,25.53
2018-02-21T08:37:18.397Z,30.87
2018-02-21T08:39:45.881Z,28.80
2018-02-21T08:42:13.346Z,29.60
2018-02-21T08:44:40.825Z,29.40
2018-02-21T08:47:08.401Z,29.37
2018-02-21T08:49:35.852Z,28.50
2018-02-21T08:52:03.391Z,27.90
2018-02-21T08:54:30.852Z,27.40
2018-02-21T08:56:58.309Z,27.20
2018-02-21T08:59:25.794Z,28.37
2018-02-21T09:01:53.833Z,28.97
2018-02-21T09:04:21.286Z,25.23
2018-02-21T09:06:48.911Z,27.50
2018-02-21T09:09:16.376Z,29.57
2018-02-21T09:11:43.931Z,27.63
2018-02-21T09:14:11.794Z,28.33
2018-02-21T09:16:39.308Z,27.80
2018-02-21T09:19:06.841Z,26.97
2018-02-21T09:21:34.306Z,26.73
2018-02-21T09:24:02.361Z,26.60
2018-02-21T09:26:29.800Z,26.80
2018-02-21T09:28:57.269Z,26.50
2018-02-21T09:31:24.743Z,27.10
2018-02-21T09:33:52.188Z,26.07
2018-02-21T09:36:19.701Z,28.63
2018-02-21T09:38:47.544Z,27.20
2018-02-21T09:41:15.021Z,28.80
2018-02-21T09:43:42.503Z,29.87
2018-02-21T09:46:10.444Z,29.30
2018-02-21T09:48:37.887Z,27.57
2018-02-21T09:51:05.376Z,27.10
2018-02-21T09:53:32.924Z,27.70
2018-02-21T09:56:00.375Z,28.67
2018-02-21T09:58:27.836Z,27.50
2018-02-21T10:00:55.330Z,25.33
2018-02-21T10:03:22.757Z,25.27
2018-02-21T10:05:50.338Z,27.80
2018-02-21T10:08:17.861Z,28.63
2018-02-21T10:10:45.377Z,30.37
2018-02-21T10:13:12.860Z,27.43
2018-02-21T10:15:40.792Z,26.13
2018-02-21T10:18:08.274Z,27.57
2018-02-21T10:20:35.726Z,27.83
2018-02-21T10:23:04.297Z,26.67
2018-02-21T10:25:31.773Z,26.93
2018-02-21T10:27:59.247Z,27.27
2018-02-21T10:30:26.730Z,25.90
2018-02-21T10:32:54.587Z,28.00
2018-02-21T10:35:22.037Z,25.27
2018-02-21T10:37:49.493Z,26.83
2018-02-21T10:40:16.944Z,24.80
2018-02-21T10:42:44.409Z,24.53
2018-02-21T10:45:11.871Z,25.23
2018-02-21T10:47:39.327Z,25.80
2018-02-21T10:50:06.783Z,23.97
2018-02-21T10:52:34.261Z,23.87
2018-02-21T10:55:03.250Z,25.50
2018-02-21T10:57:30.728Z,25.10
2018-02-21T10:59:58.208Z,23.70
2018-02-21T11:02:25.759Z,23.50
2018-02-21T11:04:53.741Z,24.83
2018-02-21T11:07:21.168Z,23.67
2018-02-21T11:09:48.635Z,25.13
2018-02-21T11:12:16.136Z,23.93
2018-02-21T11:14:43.673Z,24.40
2018-02-21T11:17:11.229Z,22.80
2018-02-21T11:19:38.862Z,26.10
2018-02-21T11:22:06.320Z,23.50
2018-02-21T11:24:33.798Z,25.37
2018-02-21T11:27:01.315Z,23.63
2018-02-21T11:29:29.262Z,23.03
2018-02-21T11:31:57.325Z,24.67
2018-02-21T11:34:24.803Z,22.97
2018-02-21T11:36:52.354Z,22.70
2018-02-21T11:39:19.821Z,22.60
2018-02-21T11:41:47.413Z,24.87
2018-02-21T11:44:15.257Z,21.40
2018-02-21T11:46:42.714Z,23.43
2018-02-21T11:49:10.272Z,23.00
2018-02-21T11:51:37.747Z,24.13
2018-02-21T11:54:05.473Z,22.63
2018-02-21T11:56:32.967Z,22.40
2018-02-21T11:59:00.644Z,24.87
2018-02-21T12:01:28.106Z,25.00
2018-02-21T12:03:56.340Z,22.60
2018-02-21T12:06:23.794Z,24.03
2018-02-21T12:08:51.240Z,22.03
2018-02-21T12:11:19.105Z,24.60
2018-02-21T12:13:46.945Z,21.80
2018-02-21T12:16:14.409Z,23.33
2018-02-21T12:18:41.855Z,23.30
2018-02-21T12:21:11.174Z,23.87
2018-02-21T12:23:38.697Z,22.33
2018-02-21T12:26:06.160Z,23.37
2018-02-21T12:28:33.621Z,23.40
2018-02-21T12:31:01.093Z,22.63
2018-02-21T12:33:28.579Z,22.43
2018-02-21T12:35:56.030Z,22.53
2018-02-21T12:38:23.486Z,22.90
2018-02-21T12:40:56.788Z,23.33
2018-02-21T12:43:24.257Z,21.50
2018-02-21T12:45:51.753Z,24.10
2018-02-21T12:48:19.608Z,22.60
2018-02-21T12:50:47.062Z,20.97
2018-02-21T12:53:14.537Z,24.00
2018-02-21T12:55:42.695Z,22.80
2018-02-21T12:58:10.151Z,20.43
2018-02-21T13:00:37.618Z,20.33
2018-02-21T13:03:05.114Z,21.40
2018-02-21T13:05:32.980Z,20.80
2018-02-21T13:08:00.528Z,19.37
2018-02-21T13:10:28.086Z,19.67
2018-02-21T13:12:55.545Z,19.50
2018-02-21T13:15:23.007Z,19.37
2018-02-21T13:17:50.595Z,20.43
2018-02-21T13:20:18.141Z,21.40
2018-02-21T13:22:45.601Z,22.10
2018-02-21T13:25:13.052Z,21.17
2018-02-21T13:27:40.525Z,21.83
2018-02-21T13:30:08.001Z,18.87
2018-02-21T13:32:35.470Z,21.10
2018-02-21T13:35:02.924Z,20.03
2018-02-21T13:37:30.399Z,19.93
2018-02-21T13:39:58.252Z,20.60
2018-02-21T13:42:25.709Z,20.63
2018-02-21T13:44:53.181Z,20.13
2018-02-21T13:47:20.641Z,19.70
2018-02-21T13:49:48.137Z,18.43
2018-02-21T13:52:15.663Z,17.73
2018-02-21T13:54:43.145Z,18.93
2018-02-21T13:57:11.001Z,15.97
2018-02-21T13:59:38.481Z,15.43
2018-02-21T14:02:06.328Z,18.00
2018-02-21T14:04:33.804Z,18.47
2018-02-21T14:07:01.268Z,17.93
2018-02-21T14:09:29.115Z,18.53
2018-02-21T14:11:56.580Z,19.20
2018-02-21T14:14:24.138Z,17.80
2018-02-21T14:16:51.610Z,17.57
2018-02-21T14:19:19.097Z,17.43
2018-02-21T14:21:47.649Z,14.57
2018-02-21T14:24:15.204Z,16.63
2018-02-21T14:26:42.670Z,15.80
2018-02-21T14:29:10.172Z,16.50
2018-02-21T14:31:37.577Z,16.07
2018-02-21T14:34:05.442Z,16.37
2018-02-21T14:36:32.896Z,14.00
2018-02-21T14:39:00.345Z,14.43
2018-02-21T14:41:27.858Z,14.60
2018-02-21T14:43:55.425Z,15.10
2018-02-21T14:46:22.880Z,15.77
2018-02-21T14:48:50.340Z,14.60
2018-02-21T14:51:17.805Z,14.03
2018-02-21T14:53:45.263Z,16.50
2018-02-21T14:56:12.721Z,15.23
2018-02-21T14:58:40.202Z,15.13
2018-02-21T15:01:07.675Z,14.23
2018-02-21T15:03:35.118Z,13.33
2018-02-21T15:06:03.389Z,15.03
2018-02-21T15:08:30.841Z,14.57
2018-02-21T15:10:58.296Z,15.73
2018-02-21T15:13:25.771Z,14.60
2018-02-21T15:15:53.228Z,15.30
2018-02-21T15:18:20.808Z,16.57
2018-02-21T15:20:48.273Z,14.87
2018-02-21T15:23:15.833Z,14.63
2018-02-21T15:25:43.289Z,13.73
2018-02-21T15:28:10.865Z,14.13
2018-02-21T15:30:38.362Z,16.23
2018-02-21T15:33:06.225Z,15.17
2018-02-21T15:35:34.085Z,15.80
2018-02-21T15:38:01.624Z,12.80
2018-02-21T15:40:29.092Z,15.10
2018-02-21T15:42:56.549Z,15.80
2018-02-21T15:45:24.015Z,15.57
2018-02-21T15:47:51.482Z,16.13
2018-02-21T15:50:20.364Z,19.40
2018-02-21T15:52:47.840Z,19.83
2018-02-21T15:55:15.307Z,21.93
2018-02-21T15:57:42.860Z,20.13
2018-02-21T16:00:10.453Z,22.50
2018-02-21T16:02:38.577Z,21.23
2018-02-21T16:05:06.057Z,21.43
2018-02-21T16:07:33.514Z,19.73
2018-02-21T16:10:00.978Z,19.90
2018-02-21T16:12:28.548Z,23.27
2018-02-21T16:14:56.003Z,20.60
2018-02-21T16:17:23.452Z,19.40
2018-02-21T16:19:50.944Z,20.70
2018-02-21T16:22:18.496Z,20.93
2018-02-21T16:24:45.986Z,22.03
2018-02-21T16:27:13.845Z,23.23
2018-02-21T16:29:42.394Z,20.27
2018-02-21T16:32:09.880Z,21.40
2018-02-21T16:34:37.564Z,20.67
2018-02-21T16:37:05.056Z,23.50
2018-02-21T16:39:32.535Z,18.63
2018-02-21T16:41:59.993Z,18.90
2018-02-21T16:44:27.495Z,19.70
2018-02-21T16:46:54.958Z,20.27
2018-02-21T16:49:22.468Z,20.63
2018-02-21T16:51:49.976Z,21.27
2018-02-21T16:54:22.304Z,20.80
2018-02-21T16:56:49.788Z,21.07
2018-02-21T16:59:17.299Z,19.47
2018-02-21T17:01:44.865Z,21.67
2018-02-21T17:04:12.324Z,20.70
2018-02-21T17:06:40.322Z,19.73
2018-02-21T17:09:08.361Z,20.43
2018-02-21T17:11:35.806Z,18.20
2018-02-21T17:14:03.279Z,20.10
2018-02-21T17:16:30.747Z,20.50
2018-02-21T17:18:58.321Z,19.97
2018-02-21T17:21:26.168Z,19.80
2018-02-21T17:23:53.637Z,18.93
2018-02-21T17:26:21.111Z,20.63
2018-02-21T17:28:48.618Z,20.77
2018-02-21T17:31:16.135Z,20.77
2018-02-21T17:33:43.600Z,20.43
2018-02-21T17:36:11.084Z,19.73
2018-02-21T17:38:38.943Z,18.63
2018-02-21T17:41:12.074Z,19.60
2018-02-21T17:43:39.586Z,20.17
2018-02-21T17:46:07.072Z,19.13
2018-02-21T17:48:34.556Z,19.13
2018-02-21T17:51:02.044Z,18.83
2018-02-21T17:53:29.511Z,18.27
2018-02-21T17:55:57.918Z,17.20
2018-02-21T17:58:25.391Z,17.87
2018-02-21T18:00:52.869Z,18.00
2018-02-21T18:03:20.873Z,15.80
2018-02-21T18:05:48.788Z,17.77
2018-02-21T18:08:16.347Z,17.00
2018-02-21T18:10:43.912Z,16.70
2018-02-21T18:13:11.478Z,16.93
2018-02-21T18:15:38.947Z,15.10
2018-02-21T18:18:06.409Z,17.43
2018-02-21T18:20:33.970Z,16.17
2018-02-21T18:23:01.441Z,16.77
2018-02-21T18:25:28.996Z,15.53
2018-02-21T18:27:56.454Z,17.20
2018-02-21T18:30:23.919Z,16.63
2018-02-21T18:32:51.809Z,14.87
2018-02-21T18:35:19.782Z,17.60
2018-02-21T18:37:47.652Z,16.03
2018-02-21T18:40:15.226Z,18.37
2018-02-21T18:42:43.177Z,17.77
2018-02-21T18:45:10.626Z,18.03
2018-02-21T18:47:38.101Z,17.40
2018-02-21T18:50:05.567Z,16.57
2018-02-21T18:52:33.150Z,16.13
2018-02-21T18:55:01.022Z,15.27
2018-02-21T18:57:28.962Z,17.97
2018-02-21T18:59:56.479Z,19.33
2018-02-21T19:02:23.999Z,17.27
2018-02-21T19:04:51.760Z,16.57
2018-02-21T19:07:19.377Z,18.77
2018-02-21T19:09:46.810Z,17.30
2018-02-21T19:12:14.673Z,17.80
2018-02-21T19:14:42.219Z,17.97
2018-02-21T19:17:09.676Z,16.73
2018-02-21T19:19:37.159Z,18.67
2018-02-21T19:22:04.625Z,16.80
2018-02-21T19:24:32.587Z,17.67
2018-02-21T19:27:00.048Z,15.30
2018-02-21T19:29:27.562Z,16.83
2018-02-21T19:31:55.048Z,17.90
2018-02-21T19:34:22.518Z,17.37
2018-02-21T19:36:49.984Z,16.53
2018-02-21T19:39:17.547Z,18.73
2018-02-21T19:41:45.020Z,16.37
2018-02-21T19:44:12.582Z,16.57
2018-02-21T19:46:40.338Z,16.63
2018-02-21T19:49:08.326Z,16.50
2018-02-21T19:51:35.802Z,17.80
2018-02-21T19:54:03.661Z,16.03
2018-02-21T19:56:31.140Z,19.77
2018-02-21T19:58:59.023Z,16.23
2018-02-21T20:01:26.881Z,19.27
2018-02-21T20:03:54.833Z,19.10
2018-02-21T20:06:22.402Z,21.00
2018-02-21T20:08:49.968Z,18.07
2018-02-21T20:11:17.827Z,19.20
2018-02-21T20:13:45.317Z,19.20
2018-02-21T20:16:13.205Z,20.57
2018-02-21T20:18:41.049Z,17.60
2018-02-21T20:21:08.995Z,17.40
2018-02-21T20:23:36.473Z,21.20
2018-02-21T20:26:03.930Z,18.70
2018-02-21T20:28:31.950Z,21.47
2018-02-21T20:30:59.488Z,20.37
2018-02-21T20:33:27.016Z,21.40
2018-02-21T20:35:54.477Z,21.10
2018-02-21T20:38:22.001Z,26.00
2018-02-21T20:40:49.848Z,23.40
2018-02-21T20:43:17.744Z,23.73
2018-02-21T20:45:45.210Z,24.60
2018-02-21T20:48:12.735Z,23.40
2018-02-21T20:50:40.519Z,23.97
2018-02-21T20:53:08.385Z,25.10
2018-02-21T20:55:36.243Z,24.20
2018-02-21T20:58:03.808Z,24.47
2018-02-21T21:00:31.350Z,25.80
2018-02-21T21:02:58.828Z,26.40
2018-02-21T21:05:26.308Z,27.70
2018-02-21T21:07:53.782Z,26.20
2018-02-21T21:10:21.643Z,26.30
2018-02-21T21:12:49.513Z,25.40
2018-02-21T21:15:17.374Z,28.00
2018-02-21T21:17:44.924Z,26.17
2018-02-21T21:20:12.402Z,25.37
2018-02-21T21:22:39.890Z,29.07
2018-02-21T21:25:07.378Z,26.50
2018-02-21T21:27:34.852Z,26.50
2018-02-21T21:30:02.342Z,28.60
2018-02-21T21:32:29.820Z,28.17
2018-02-21T21:34:57.690Z,28.13
2018-02-21T21:37:25.564Z,26.77
2018-02-21T21:39:53.431Z,26.30
2018-02-21T21:42:21.309Z,28.00
2018-02-21T21:44:49.255Z,29.70
2018-02-21T21:47:16.708Z,27.37
2018-02-21T21:49:44.628Z,26.17
2018-02-21T21:52:12.112Z,29.07
2018-02-21T21:54:39.614Z,28.17
2018-02-21T21:57:07.082Z,28.83
2018-02-21T21:59:34.655Z,27.20
2018-02-21T22:02:02.122Z,26.90
2018-02-21T22:04:30.023Z,28.13
2018-02-21T22:06:57.477Z,28.70
2018-02-21T22:09:25.672Z,26.37
2018-02-21T22:11:53.174Z,26.90
2018-02-21T22:14:20.651Z,27.07
2018-02-21T22:16:48.124Z,25.90
2018-02-21T22:19:16.078Z,26.20
2018-02-21T22:21:43.563Z,26.80
2018-02-21T22:24:11.532Z,27.10
2018-02-21T22:26:39.412Z,26.33
2018-02-21T22:29:07.370Z,28.27
2018-02-21T22:31:35.024Z,28.57
2018-02-21T22:34:02.507Z,25.87
2018-02-21T22:36:30.374Z,25.33
2018-02-21T22:38:58.322Z,28.10
2018-02-21T22:41:25.875Z,25.50
2018-02-21T22:43:53.354Z,26.90
2018-02-21T22:46:20.844Z,25.67
2018-02-21T22:48:48.702Z,27.57
2018-02-21T22:51:16.596Z,26.27
2018-02-21T22:53:44.071Z,25.37
2018-02-21T22:56:11.587Z,25.33
2018-02-21T22:58:39.124Z,27.60
2018-02-21T23:01:06.630Z,26.07
2018-02-21T23:03:34.515Z,25.77
2018-02-21T23:06:02.059Z,26.17
2018-02-21T23:08:29.539Z,25.20
2018-02-21T23:10:57.404Z,24.93
2018-02-21T23:13:25.256Z,24.67
2018-02-21T23:15:52.721Z,25.60
2018-02-21T23:18:20.191Z,23.90
2018-02-21T23:20:48.051Z,25.17
2018-02-21T23:23:15.518Z,25.00
2018-02-21T23:25:43.080Z,26.57
2018-02-21T23:28:11.290Z,24.97
2018-02-21T23:30:41.406Z,27.13
2018-02-21T23:33:09.339Z,23.77
2018-02-21T23:35:36.884Z,24.77
2018-02-21T23:38:04.378Z,21.30
2018-02-21T23:40:31.973Z,24.50
2018-02-21T23:42:59.408Z,23.10
2018-02-21T23:45:27.266Z,24.63
2018-02-21T23:47:54.727Z,22.10
2018-02-21T23:50:22.294Z,24.10
2018-02-21T23:52:49.755Z,22.27
2018-02-21T23:55:19.815Z,23.50
2018-02-21T23:57:47.339Z,23.97
